EJU72WM LEPA-EGMC
Flight info
| Callsign | EJU72WM |
|---|---|
| Flight time | 1h 52m |
| Altitude | 34000 |
| Route | GALAT N861 OLOXO DCT OKABI DCT TOU DCT TUPAR UN861 ANG DCT BULOX DCT ANGLO UZ273 NEVIL |
| Aircraft | A320/M-SDE2E3FGHIJ1RWXYZ/LB1 |
Departure
| Time | 2026-05-04 23:28 |
|---|---|
| Airport | Palma de Mallorca Airport (LEPA) |
Arrival
| Time | 2026-05-05 01:20 |
|---|---|
| Airport | London Southend Airport (EGMC) |
| Time | Latitude | Longitude | Altitude | Speed | Heading |
|---|---|---|---|---|---|
| 2026-05-04 22:53 | 39.54799 | 2.73609 | 36 ft | 0 kts | 58° |
| 2026-05-04 23:15 | 39.54796 | 2.73602 | 36 ft | 2 kts | 58° |
| 2026-05-04 23:15 | 39.54788 | 2.73585 | 35 ft | 2 kts | 58° |
| 2026-05-04 23:15 | 39.54780 | 2.73569 | 35 ft | 2 kts | 58° |
| 2026-05-04 23:15 | 39.54775 | 2.73550 | 35 ft | 2 kts | 90° |
| 2026-05-04 23:16 | 39.54778 | 2.73530 | 35 ft | 2 kts | 117° |
| 2026-05-04 23:16 | 39.54787 | 2.73514 | 35 ft | 1 kts | 144° |
| 2026-05-04 23:16 | 39.54794 | 2.73510 | 35 ft | 1 kts | 151° |
| 2026-05-04 23:16 | 39.54796 | 2.73508 | 35 ft | 0 kts | 150° |
| 2026-05-04 23:18 | 39.54795 | 2.73508 | 35 ft | 0 kts | 150° |
| 2026-05-04 23:19 | 39.54794 | 2.73510 | 35 ft | 0 kts | 150° |
| 2026-05-04 23:19 | 39.54790 | 2.73513 | 35 ft | 0 kts | 149° |
| 2026-05-04 23:19 | 39.54783 | 2.73518 | 35 ft | 1 kts | 150° |
| 2026-05-04 23:19 | 39.54773 | 2.73525 | 35 ft | 1 kts | 151° |
| 2026-05-04 23:20 | 39.54761 | 2.73534 | 35 ft | 2 kts | 152° |
| 2026-05-04 23:20 | 39.54747 | 2.73546 | 35 ft | 2 kts | 144° |
| 2026-05-04 23:20 | 39.54725 | 2.73566 | 36 ft | 4 kts | 146° |
| 2026-05-04 23:20 | 39.54692 | 2.73593 | 36 ft | 6 kts | 149° |
| 2026-05-04 23:21 | 39.54644 | 2.73619 | 37 ft | 8 kts | 170° |
| 2026-05-04 23:21 | 39.54588 | 2.73661 | 37 ft | 9 kts | 112° |
| 2026-05-04 23:21 | 39.54613 | 2.73756 | 37 ft | 12 kts | 56° |
| 2026-05-04 23:21 | 39.54664 | 2.73861 | 37 ft | 14 kts | 58° |
| 2026-05-04 23:22 | 39.54717 | 2.73988 | 37 ft | 16 kts | 64° |
| 2026-05-04 23:22 | 39.54784 | 2.74128 | 35 ft | 19 kts | 57° |
| 2026-05-04 23:22 | 39.54858 | 2.74282 | 32 ft | 19 kts | 60° |
| 2026-05-04 23:22 | 39.54926 | 2.74425 | 32 ft | 18 kts | 54° |
| 2026-05-04 23:23 | 39.55000 | 2.74567 | 29 ft | 18 kts | 57° |
| 2026-05-04 23:23 | 39.55066 | 2.74708 | 27 ft | 18 kts | 60° |
| 2026-05-04 23:23 | 39.55137 | 2.74867 | 23 ft | 21 kts | 60° |
| 2026-05-04 23:23 | 39.55216 | 2.75046 | 18 ft | 23 kts | 60° |
| 2026-05-04 23:24 | 39.55307 | 2.75223 | 15 ft | 24 kts | 58° |
| 2026-05-04 23:24 | 39.55394 | 2.75409 | 15 ft | 23 kts | 58° |
| 2026-05-04 23:24 | 39.55479 | 2.75586 | 15 ft | 22 kts | 59° |
| 2026-05-04 23:24 | 39.55561 | 2.75761 | 15 ft | 22 kts | 59° |
| 2026-05-04 23:25 | 39.55640 | 2.75933 | 15 ft | 21 kts | 59° |
| 2026-05-04 23:25 | 39.55703 | 2.76074 | 15 ft | 13 kts | 78° |
| 2026-05-04 23:25 | 39.55700 | 2.76102 | 15 ft | 0 kts | 129° |
| 2026-05-04 23:26 | 39.55698 | 2.76105 | 15 ft | 0 kts | 129° |
| 2026-05-04 23:26 | 39.55689 | 2.76117 | 15 ft | 3 kts | 142° |
| 2026-05-04 23:26 | 39.55657 | 2.76144 | 15 ft | 8 kts | 151° |
| 2026-05-04 23:27 | 39.55582 | 2.76143 | 15 ft | 11 kts | 200° |
| 2026-05-04 23:27 | 39.55508 | 2.76092 | 15 ft | 11 kts | 228° |
| 2026-05-04 23:27 | 39.55492 | 2.76064 | 15 ft | 0 kts | 239° |
| 2026-05-04 23:27 | 39.55387 | 2.75843 | 15 ft | 64 kts | 238° |
| 2026-05-04 23:28 | 39.55007 | 2.75053 | 17 ft | 130 kts | 240° |
| 2026-05-04 23:28 | 39.54431 | 2.73836 | 148 ft | 170 kts | 238° |
| 2026-05-04 23:28 | 39.53786 | 2.72490 | 715 ft | 176 kts | 237° |
| 2026-05-04 23:28 | 39.53141 | 2.71147 | 1552 ft | 170 kts | 237° |
| 2026-05-04 23:29 | 39.52481 | 2.69816 | 2045 ft | 181 kts | 237° |
| 2026-05-04 23:29 | 39.51778 | 2.68272 | 2409 ft | 199 kts | 242° |
| 2026-05-04 23:29 | 39.51448 | 2.66404 | 2772 ft | 220 kts | 274° |
| 2026-05-04 23:29 | 39.51779 | 2.64432 | 3386 ft | 227 kts | 278° |
| 2026-05-04 23:30 | 39.51686 | 2.62358 | 4133 ft | 224 kts | 246° |
| 2026-05-04 23:30 | 39.50774 | 2.60777 | 4853 ft | 225 kts | 219° |
| 2026-05-04 23:30 | 39.49517 | 2.59520 | 5586 ft | 227 kts | 223° |
| 2026-05-04 23:30 | 39.48370 | 2.58045 | 6295 ft | 230 kts | 230° |
| 2026-05-04 23:31 | 39.47353 | 2.56392 | 7029 ft | 232 kts | 235° |
| 2026-05-04 23:31 | 39.46433 | 2.54680 | 7779 ft | 233 kts | 237° |
| 2026-05-04 23:31 | 39.45533 | 2.52882 | 8545 ft | 234 kts | 240° |
| 2026-05-04 23:31 | 39.45000 | 2.50832 | 9051 ft | 249 kts | 267° |
| 2026-05-04 23:32 | 39.45402 | 2.48493 | 9428 ft | 272 kts | 296° |
| 2026-05-04 23:32 | 39.46712 | 2.46678 | 9993 ft | 289 kts | 322° |
| 2026-05-04 23:32 | 39.48445 | 2.45243 | 10624 ft | 297 kts | 322° |
| 2026-05-04 23:32 | 39.50235 | 2.43707 | 11058 ft | 310 kts | 322° |
| 2026-05-04 23:33 | 39.52063 | 2.42117 | 11734 ft | 315 kts | 321° |
| 2026-05-04 23:33 | 39.53884 | 2.40529 | 12446 ft | 316 kts | 321° |
| 2026-05-04 23:33 | 39.55806 | 2.38961 | 13129 ft | 321 kts | 324° |
| 2026-05-04 23:33 | 39.57756 | 2.37497 | 13794 ft | 324 kts | 325° |
| 2026-05-04 23:34 | 39.59744 | 2.36022 | 14438 ft | 326 kts | 324° |
| 2026-05-04 23:34 | 39.61741 | 2.34539 | 15070 ft | 329 kts | 324° |
| 2026-05-04 23:34 | 39.63751 | 2.33043 | 15695 ft | 331 kts | 323° |
| 2026-05-04 23:34 | 39.65784 | 2.31529 | 16312 ft | 334 kts | 323° |
| 2026-05-04 23:35 | 39.67819 | 2.30009 | 16914 ft | 336 kts | 323° |
| 2026-05-04 23:35 | 39.69875 | 2.28473 | 17503 ft | 338 kts | 322° |
| 2026-05-04 23:35 | 39.71939 | 2.26928 | 18079 ft | 340 kts | 322° |
| 2026-05-04 23:35 | 39.74016 | 2.25370 | 18636 ft | 342 kts | 322° |
| 2026-05-04 23:36 | 39.76121 | 2.23790 | 19181 ft | 345 kts | 322° |
| 2026-05-04 23:36 | 39.78220 | 2.22213 | 19681 ft | 348 kts | 322° |
| 2026-05-04 23:36 | 39.80364 | 2.20601 | 20196 ft | 351 kts | 322° |
| 2026-05-04 23:36 | 39.82702 | 2.18845 | 20746 ft | 354 kts | 322° |
| 2026-05-04 23:37 | 39.84873 | 2.17214 | 21243 ft | 356 kts | 322° |
| 2026-05-04 23:37 | 39.87111 | 2.15530 | 21721 ft | 360 kts | 322° |
| 2026-05-04 23:37 | 39.89374 | 2.13823 | 22211 ft | 362 kts | 322° |
| 2026-05-04 23:37 | 39.91663 | 2.12099 | 22674 ft | 365 kts | 322° |
| 2026-05-04 23:38 | 39.93958 | 2.10367 | 23137 ft | 368 kts | 322° |
| 2026-05-04 23:38 | 39.96254 | 2.08633 | 23598 ft | 370 kts | 322° |
| 2026-05-04 23:38 | 39.98620 | 2.06845 | 24062 ft | 373 kts | 322° |
| 2026-05-04 23:38 | 40.00971 | 2.05068 | 24526 ft | 374 kts | 322° |
| 2026-05-04 23:39 | 40.03316 | 2.03294 | 24965 ft | 377 kts | 322° |
| 2026-05-04 23:39 | 40.05686 | 2.01498 | 25377 ft | 379 kts | 322° |
| 2026-05-04 23:39 | 40.08047 | 1.99707 | 25804 ft | 381 kts | 322° |
| 2026-05-04 23:39 | 40.10433 | 1.97897 | 26199 ft | 383 kts | 322° |
| 2026-05-04 23:40 | 40.12808 | 1.96113 | 26559 ft | 387 kts | 324° |
| 2026-05-04 23:40 | 40.15364 | 1.94584 | 26927 ft | 396 kts | 332° |
| 2026-05-04 23:40 | 40.18109 | 1.93480 | 27273 ft | 405 kts | 340° |
| 2026-05-04 23:40 | 40.21050 | 1.92716 | 27648 ft | 410 kts | 342° |
| 2026-05-04 23:41 | 40.24001 | 1.92044 | 28019 ft | 412 kts | 343° |
| 2026-05-04 23:41 | 40.26972 | 1.91378 | 28353 ft | 415 kts | 343° |
| 2026-05-04 23:41 | 40.29971 | 1.90698 | 28683 ft | 417 kts | 343° |
| 2026-05-04 23:41 | 40.32983 | 1.90009 | 29009 ft | 419 kts | 343° |
| 2026-05-04 23:42 | 40.35989 | 1.89315 | 29325 ft | 421 kts | 342° |
| 2026-05-04 23:42 | 40.39014 | 1.88613 | 29629 ft | 422 kts | 342° |
| 2026-05-04 23:42 | 40.42105 | 1.87893 | 29944 ft | 424 kts | 342° |
| 2026-05-04 23:42 | 40.45181 | 1.87174 | 30239 ft | 426 kts | 342° |
| 2026-05-04 23:43 | 40.48225 | 1.86463 | 30505 ft | 428 kts | 342° |
| 2026-05-04 23:43 | 40.51326 | 1.85736 | 30753 ft | 430 kts | 342° |
| 2026-05-04 23:43 | 40.54454 | 1.85003 | 31010 ft | 432 kts | 342° |
| 2026-05-04 23:43 | 40.57516 | 1.84285 | 31266 ft | 433 kts | 342° |
| 2026-05-04 23:44 | 40.60695 | 1.83538 | 31499 ft | 435 kts | 342° |
| 2026-05-04 23:44 | 40.63845 | 1.82798 | 31748 ft | 436 kts | 342° |
| 2026-05-04 23:44 | 40.67014 | 1.82053 | 31994 ft | 437 kts | 342° |
| 2026-05-04 23:44 | 40.70140 | 1.81317 | 32205 ft | 439 kts | 342° |
| 2026-05-04 23:45 | 40.73292 | 1.80573 | 32419 ft | 441 kts | 342° |
| 2026-05-04 23:45 | 40.76373 | 1.79847 | 32640 ft | 442 kts | 342° |
| 2026-05-04 23:45 | 40.79528 | 1.79102 | 32826 ft | 444 kts | 342° |
| 2026-05-04 23:45 | 40.82682 | 1.78355 | 33029 ft | 445 kts | 342° |
| 2026-05-04 23:46 | 40.85894 | 1.77597 | 33266 ft | 445 kts | 342° |
| 2026-05-04 23:46 | 40.89042 | 1.76851 | 33498 ft | 445 kts | 342° |
| 2026-05-04 23:46 | 40.92255 | 1.76089 | 33725 ft | 445 kts | 342° |
| 2026-05-04 23:46 | 40.95442 | 1.75331 | 33902 ft | 446 kts | 342° |
| 2026-05-04 23:47 | 41.01862 | 1.73801 | 33926 ft | 451 kts | 342° |
| 2026-05-04 23:47 | 41.08419 | 1.72497 | 33931 ft | 455 kts | 346° |
| 2026-05-04 23:48 | 41.14961 | 1.71504 | 33939 ft | 456 kts | 346° |
| 2026-05-04 23:48 | 41.21616 | 1.70488 | 33935 ft | 457 kts | 346° |
| 2026-05-04 23:49 | 41.28238 | 1.69469 | 33940 ft | 457 kts | 346° |
| 2026-05-04 23:49 | 41.34866 | 1.68436 | 33940 ft | 456 kts | 346° |
| 2026-05-04 23:50 | 41.41492 | 1.67408 | 33948 ft | 456 kts | 347° |
| 2026-05-04 23:50 | 41.48122 | 1.66379 | 33939 ft | 456 kts | 346° |
| 2026-05-04 23:51 | 41.54761 | 1.65344 | 33945 ft | 457 kts | 347° |
| 2026-05-04 23:51 | 41.61400 | 1.64302 | 33947 ft | 457 kts | 347° |
| 2026-05-04 23:52 | 41.68032 | 1.63258 | 33948 ft | 458 kts | 347° |
| 2026-05-04 23:52 | 41.74654 | 1.62210 | 33955 ft | 458 kts | 347° |
| 2026-05-04 23:53 | 41.81292 | 1.61167 | 33952 ft | 458 kts | 347° |
| 2026-05-04 23:53 | 41.87917 | 1.60129 | 33952 ft | 458 kts | 347° |
| 2026-05-04 23:54 | 41.94462 | 1.59095 | 33960 ft | 458 kts | 347° |
| 2026-05-04 23:54 | 42.00968 | 1.58064 | 33952 ft | 459 kts | 347° |
| 2026-05-04 23:55 | 42.07521 | 1.57025 | 33956 ft | 459 kts | 347° |
| 2026-05-04 23:56 | 42.17409 | 1.55448 | 33956 ft | 460 kts | 347° |
| 2026-05-04 23:56 | 42.23987 | 1.54396 | 33970 ft | 461 kts | 348° |
| 2026-05-04 23:57 | 42.30590 | 1.53338 | 33971 ft | 461 kts | 348° |
| 2026-05-04 23:57 | 42.37234 | 1.52269 | 33968 ft | 461 kts | 348° |
| 2026-05-04 23:58 | 42.43889 | 1.51200 | 33967 ft | 461 kts | 348° |
| 2026-05-04 23:58 | 42.50505 | 1.50136 | 33959 ft | 462 kts | 348° |
| 2026-05-04 23:59 | 42.57183 | 1.49059 | 33964 ft | 462 kts | 348° |
| 2026-05-04 23:59 | 42.63844 | 1.47987 | 33957 ft | 463 kts | 348° |
| 2026-05-05 00:00 | 42.70522 | 1.46921 | 33962 ft | 463 kts | 348° |
| 2026-05-05 00:00 | 42.77240 | 1.45845 | 33956 ft | 464 kts | 349° |
| 2026-05-05 00:01 | 42.83924 | 1.44771 | 33969 ft | 464 kts | 349° |
| 2026-05-05 00:01 | 42.90593 | 1.43693 | 33959 ft | 464 kts | 349° |
| 2026-05-05 00:02 | 42.97294 | 1.42609 | 33963 ft | 464 kts | 349° |
| 2026-05-05 00:02 | 43.03952 | 1.41528 | 33965 ft | 464 kts | 349° |
| 2026-05-05 00:03 | 43.10678 | 1.40434 | 33978 ft | 465 kts | 349° |
| 2026-05-05 00:03 | 43.17469 | 1.39324 | 33975 ft | 466 kts | 349° |
| 2026-05-05 00:04 | 43.24276 | 1.38210 | 33980 ft | 467 kts | 349° |
| 2026-05-05 00:04 | 43.31154 | 1.37082 | 33982 ft | 467 kts | 349° |
| 2026-05-05 00:05 | 43.37968 | 1.35960 | 33977 ft | 468 kts | 349° |
| 2026-05-05 00:05 | 43.44844 | 1.34826 | 33980 ft | 468 kts | 349° |
| 2026-05-05 00:06 | 43.51729 | 1.33686 | 33981 ft | 468 kts | 349° |
| 2026-05-05 00:06 | 43.58556 | 1.32557 | 33978 ft | 469 kts | 349° |
| 2026-05-05 00:07 | 43.65334 | 1.30928 | 33977 ft | 465 kts | 342° |
| 2026-05-05 00:07 | 43.71870 | 1.28137 | 33971 ft | 461 kts | 334° |
| 2026-05-05 00:08 | 43.78035 | 1.24310 | 33953 ft | 459 kts | 329° |
| 2026-05-05 00:08 | 43.84101 | 1.20128 | 33946 ft | 459 kts | 329° |
| 2026-05-05 00:09 | 43.90200 | 1.15923 | 33958 ft | 460 kts | 329° |
| 2026-05-05 00:09 | 43.96267 | 1.11748 | 33961 ft | 461 kts | 329° |
| 2026-05-05 00:10 | 44.02324 | 1.07574 | 33967 ft | 462 kts | 329° |
| 2026-05-05 00:10 | 44.08452 | 1.03345 | 33965 ft | 463 kts | 329° |
| 2026-05-05 00:11 | 44.14520 | 0.99152 | 33968 ft | 463 kts | 329° |
| 2026-05-05 00:11 | 44.20531 | 0.94989 | 33977 ft | 462 kts | 329° |
| 2026-05-05 00:12 | 44.26551 | 0.90804 | 33968 ft | 462 kts | 329° |
| 2026-05-05 00:12 | 44.32556 | 0.86624 | 33968 ft | 462 kts | 329° |
| 2026-05-05 00:13 | 44.38592 | 0.82414 | 33965 ft | 463 kts | 329° |
| 2026-05-05 00:13 | 44.44606 | 0.78207 | 33965 ft | 464 kts | 329° |
| 2026-05-05 00:14 | 44.50653 | 0.73967 | 33960 ft | 464 kts | 329° |
| 2026-05-05 00:14 | 44.56709 | 0.69712 | 33960 ft | 464 kts | 330° |
| 2026-05-05 00:15 | 44.62770 | 0.65444 | 33952 ft | 464 kts | 330° |
| 2026-05-05 00:15 | 44.68830 | 0.61166 | 33948 ft | 464 kts | 330° |
| 2026-05-05 00:16 | 44.74936 | 0.56842 | 33944 ft | 464 kts | 330° |
| 2026-05-05 00:16 | 44.81021 | 0.52528 | 33954 ft | 465 kts | 330° |
| 2026-05-05 00:17 | 44.87087 | 0.48216 | 33954 ft | 466 kts | 330° |
| 2026-05-05 00:17 | 44.93187 | 0.43869 | 33950 ft | 466 kts | 330° |
| 2026-05-05 00:18 | 44.99313 | 0.39495 | 33950 ft | 466 kts | 330° |
| 2026-05-05 00:18 | 45.05423 | 0.35118 | 33948 ft | 466 kts | 330° |
| 2026-05-05 00:19 | 45.11447 | 0.30792 | 33929 ft | 466 kts | 329° |
| 2026-05-05 00:19 | 45.17435 | 0.26482 | 33947 ft | 466 kts | 330° |
| 2026-05-05 00:20 | 45.23412 | 0.22169 | 33960 ft | 466 kts | 330° |
| 2026-05-05 00:20 | 45.29381 | 0.17857 | 33948 ft | 467 kts | 330° |
| 2026-05-05 00:21 | 45.35341 | 0.13539 | 33948 ft | 468 kts | 330° |
| 2026-05-05 00:21 | 45.41341 | 0.09179 | 33957 ft | 469 kts | 330° |
| 2026-05-05 00:22 | 45.47316 | 0.04827 | 33946 ft | 469 kts | 330° |
| 2026-05-05 00:22 | 45.53372 | 0.00407 | 33956 ft | 469 kts | 330° |
| 2026-05-05 00:23 | 45.59375 | -0.03987 | 33951 ft | 469 kts | 330° |
| 2026-05-05 00:23 | 45.65431 | -0.08429 | 33934 ft | 470 kts | 330° |
| 2026-05-05 00:24 | 45.71503 | -0.12894 | 33938 ft | 470 kts | 330° |
| 2026-05-05 00:24 | 45.77555 | -0.17356 | 33951 ft | 470 kts | 330° |
| 2026-05-05 00:25 | 45.83606 | -0.21825 | 33927 ft | 470 kts | 330° |
| 2026-05-05 00:25 | 45.89674 | -0.26321 | 33937 ft | 470 kts | 330° |
| 2026-05-05 00:26 | 45.95759 | -0.30841 | 33943 ft | 471 kts | 331° |
| 2026-05-05 00:26 | 46.01806 | -0.35343 | 33929 ft | 470 kts | 331° |
| 2026-05-05 00:27 | 46.07823 | -0.39836 | 33922 ft | 470 kts | 331° |
| 2026-05-05 00:27 | 46.13859 | -0.44352 | 33924 ft | 470 kts | 331° |
| 2026-05-05 00:28 | 46.19869 | -0.48862 | 33920 ft | 470 kts | 331° |
| 2026-05-05 00:28 | 46.25858 | -0.53369 | 33920 ft | 470 kts | 331° |
| 2026-05-05 00:29 | 46.31868 | -0.57907 | 33927 ft | 470 kts | 331° |
| 2026-05-05 00:29 | 46.37965 | -0.62297 | 33924 ft | 471 kts | 335° |
| 2026-05-05 00:30 | 46.44377 | -0.65634 | 33926 ft | 472 kts | 343° |
| 2026-05-05 00:30 | 46.51025 | -0.67691 | 33925 ft | 473 kts | 351° |
| 2026-05-05 00:31 | 46.57859 | -0.68863 | 33929 ft | 473 kts | 353° |
| 2026-05-05 00:31 | 46.64736 | -0.69964 | 33931 ft | 473 kts | 353° |
| 2026-05-05 00:32 | 46.71611 | -0.71105 | 33923 ft | 474 kts | 353° |
| 2026-05-05 00:32 | 46.78493 | -0.72263 | 33916 ft | 473 kts | 353° |
| 2026-05-05 00:33 | 46.85345 | -0.73423 | 33912 ft | 474 kts | 353° |
| 2026-05-05 00:33 | 46.92228 | -0.74592 | 33921 ft | 474 kts | 353° |
| 2026-05-05 00:34 | 46.99112 | -0.75765 | 33907 ft | 474 kts | 353° |
| 2026-05-05 00:34 | 47.05971 | -0.76935 | 33899 ft | 474 kts | 353° |
| 2026-05-05 00:35 | 47.12892 | -0.78123 | 33912 ft | 474 kts | 353° |
| 2026-05-05 00:35 | 47.19799 | -0.79309 | 33930 ft | 474 kts | 353° |
| 2026-05-05 00:36 | 47.26634 | -0.80484 | 33921 ft | 474 kts | 353° |
| 2026-05-05 00:36 | 47.33601 | -0.81689 | 33925 ft | 474 kts | 353° |
| 2026-05-05 00:37 | 47.40550 | -0.82895 | 33932 ft | 474 kts | 353° |
| 2026-05-05 00:37 | 47.47482 | -0.84103 | 33923 ft | 474 kts | 353° |
| 2026-05-05 00:38 | 47.54360 | -0.84937 | 33932 ft | 474 kts | 359° |
| 2026-05-05 00:38 | 47.61257 | -0.84633 | 33925 ft | 474 kts | 4° |
| 2026-05-05 00:39 | 47.68239 | -0.84005 | 33928 ft | 474 kts | 4° |
| 2026-05-05 00:39 | 47.75131 | -0.83404 | 33921 ft | 475 kts | 4° |
| 2026-05-05 00:40 | 47.82100 | -0.82817 | 33930 ft | 475 kts | 4° |
| 2026-05-05 00:40 | 47.88961 | -0.82246 | 33926 ft | 475 kts | 4° |
| 2026-05-05 00:41 | 47.95761 | -0.81677 | 33937 ft | 475 kts | 4° |
| 2026-05-05 00:41 | 48.02677 | -0.81095 | 33934 ft | 475 kts | 4° |
| 2026-05-05 00:42 | 48.09660 | -0.80506 | 33931 ft | 475 kts | 4° |
| 2026-05-05 00:42 | 48.16640 | -0.79919 | 33919 ft | 475 kts | 4° |
| 2026-05-05 00:43 | 48.23610 | -0.79331 | 33919 ft | 475 kts | 4° |
| 2026-05-05 00:43 | 48.30547 | -0.78746 | 33923 ft | 474 kts | 4° |
| 2026-05-05 00:44 | 48.37492 | -0.78156 | 33922 ft | 474 kts | 4° |
| 2026-05-05 00:44 | 48.44385 | -0.77572 | 33922 ft | 475 kts | 4° |
| 2026-05-05 00:45 | 48.51234 | -0.76990 | 33937 ft | 475 kts | 4° |
| 2026-05-05 00:45 | 48.58115 | -0.76024 | 33914 ft | 474 kts | 8° |
| 2026-05-05 00:46 | 48.64915 | -0.74516 | 33923 ft | 474 kts | 9° |
| 2026-05-05 00:46 | 48.71770 | -0.72969 | 33924 ft | 474 kts | 9° |
| 2026-05-05 00:47 | 48.78683 | -0.71424 | 33918 ft | 474 kts | 9° |
| 2026-05-05 00:47 | 48.85583 | -0.69888 | 33930 ft | 474 kts | 9° |
| 2026-05-05 00:48 | 48.92489 | -0.68349 | 33932 ft | 473 kts | 9° |
| 2026-05-05 00:48 | 48.99396 | -0.66807 | 33936 ft | 473 kts | 9° |
| 2026-05-05 00:49 | 49.06264 | -0.65266 | 33950 ft | 473 kts | 8° |
| 2026-05-05 00:49 | 49.13110 | -0.63728 | 33944 ft | 474 kts | 8° |
| 2026-05-05 00:50 | 49.19893 | -0.62200 | 33955 ft | 473 kts | 8° |
| 2026-05-05 00:50 | 49.25559 | -0.60919 | 33955 ft | 473 kts | 8° |
| 2026-05-05 00:51 | 49.29653 | -0.59991 | 33952 ft | 472 kts | 8° |
| 2026-05-05 00:51 | 49.36396 | -0.58463 | 33950 ft | 472 kts | 8° |
| 2026-05-05 00:52 | 49.43135 | -0.56930 | 33925 ft | 469 kts | 8° |
| 2026-05-05 00:52 | 49.46469 | -0.56171 | 33538 ft | 466 kts | 8° |
| 2026-05-05 00:52 | 49.49791 | -0.55414 | 32766 ft | 469 kts | 8° |
| 2026-05-05 00:52 | 49.53156 | -0.54648 | 32128 ft | 467 kts | 8° |
| 2026-05-05 00:53 | 49.56464 | -0.53890 | 31613 ft | 463 kts | 8° |
| 2026-05-05 00:53 | 49.59811 | -0.53125 | 31093 ft | 459 kts | 8° |
| 2026-05-05 00:53 | 49.63115 | -0.52367 | 30506 ft | 456 kts | 9° |
| 2026-05-05 00:53 | 49.66380 | -0.51617 | 29957 ft | 451 kts | 9° |
| 2026-05-05 00:54 | 49.69662 | -0.50861 | 29453 ft | 445 kts | 9° |
| 2026-05-05 00:54 | 49.72920 | -0.50112 | 28608 ft | 448 kts | 9° |
| 2026-05-05 00:54 | 49.76191 | -0.49359 | 27753 ft | 449 kts | 9° |
| 2026-05-05 00:54 | 49.79414 | -0.48618 | 27205 ft | 443 kts | 9° |
| 2026-05-05 00:55 | 49.82649 | -0.47871 | 26654 ft | 436 kts | 9° |
| 2026-05-05 00:55 | 49.85780 | -0.47147 | 26106 ft | 430 kts | 9° |
| 2026-05-05 00:55 | 49.88904 | -0.46422 | 25556 ft | 424 kts | 9° |
| 2026-05-05 00:55 | 49.91909 | -0.45400 | 24969 ft | 416 kts | 21° |
| 2026-05-05 00:56 | 49.94598 | -0.43412 | 24314 ft | 400 kts | 34° |
| 2026-05-05 00:56 | 49.96919 | -0.40778 | 23290 ft | 392 kts | 40° |
| 2026-05-05 00:56 | 49.99107 | -0.38040 | 22491 ft | 390 kts | 40° |
| 2026-05-05 00:56 | 50.01273 | -0.35339 | 22047 ft | 381 kts | 40° |
| 2026-05-05 00:57 | 50.03375 | -0.32758 | 21963 ft | 368 kts | 40° |
| 2026-05-05 00:57 | 50.05466 | -0.30201 | 21967 ft | 367 kts | 40° |
| 2026-05-05 00:57 | 50.07551 | -0.27657 | 21967 ft | 366 kts | 40° |
| 2026-05-05 00:57 | 50.09595 | -0.25163 | 21968 ft | 366 kts | 40° |
| 2026-05-05 00:58 | 50.11646 | -0.22660 | 21969 ft | 366 kts | 40° |
| 2026-05-05 00:58 | 50.13613 | -0.20158 | 21869 ft | 361 kts | 45° |
| 2026-05-05 00:58 | 50.15334 | -0.17348 | 21481 ft | 357 kts | 53° |
| 2026-05-05 00:58 | 50.16782 | -0.14193 | 21223 ft | 357 kts | 59° |
| 2026-05-05 00:59 | 50.18098 | -0.10905 | 20966 ft | 356 kts | 60° |
| 2026-05-05 00:59 | 50.19410 | -0.07552 | 20706 ft | 355 kts | 60° |
| 2026-05-05 00:59 | 50.20741 | -0.04157 | 20442 ft | 354 kts | 60° |
| 2026-05-05 00:59 | 50.22066 | -0.00785 | 20178 ft | 352 kts | 60° |
| 2026-05-05 01:00 | 50.23389 | 0.02578 | 19913 ft | 351 kts | 60° |
| 2026-05-05 01:00 | 50.24714 | 0.05938 | 19604 ft | 350 kts | 60° |
| 2026-05-05 01:00 | 50.26030 | 0.09278 | 19160 ft | 348 kts | 60° |
| 2026-05-05 01:00 | 50.27323 | 0.12564 | 18724 ft | 345 kts | 60° |
| 2026-05-05 01:01 | 50.28607 | 0.15827 | 18292 ft | 343 kts | 60° |
| 2026-05-05 01:01 | 50.29909 | 0.19140 | 17855 ft | 340 kts | 60° |
| 2026-05-05 01:01 | 50.31201 | 0.22429 | 17411 ft | 338 kts | 60° |
| 2026-05-05 01:01 | 50.32468 | 0.25660 | 16979 ft | 336 kts | 60° |
| 2026-05-05 01:02 | 50.33752 | 0.28937 | 16541 ft | 334 kts | 60° |
| 2026-05-05 01:02 | 50.35032 | 0.32210 | 16101 ft | 333 kts | 60° |
| 2026-05-05 01:02 | 50.36279 | 0.35398 | 15668 ft | 331 kts | 60° |
| 2026-05-05 01:02 | 50.37545 | 0.38644 | 15228 ft | 330 kts | 60° |
| 2026-05-05 01:03 | 50.38806 | 0.41883 | 14789 ft | 328 kts | 59° |
| 2026-05-05 01:03 | 50.40060 | 0.45107 | 14349 ft | 327 kts | 59° |
| 2026-05-05 01:03 | 50.41296 | 0.48284 | 14004 ft | 321 kts | 59° |
| 2026-05-05 01:03 | 50.42546 | 0.51365 | 13973 ft | 321 kts | 58° |
| 2026-05-05 01:04 | 50.43767 | 0.54309 | 13973 ft | 321 kts | 58° |
| 2026-05-05 01:04 | 50.46307 | 0.60430 | 13967 ft | 321 kts | 58° |
| 2026-05-05 01:04 | 50.47608 | 0.63576 | 13968 ft | 321 kts | 57° |
| 2026-05-05 01:05 | 50.49178 | 0.66300 | 13957 ft | 324 kts | 37° |
| 2026-05-05 01:05 | 50.51310 | 0.67799 | 13962 ft | 328 kts | 13° |
| 2026-05-05 01:05 | 50.53680 | 0.67891 | 13973 ft | 331 kts | 355° |
| 2026-05-05 01:05 | 50.56026 | 0.67360 | 13970 ft | 331 kts | 352° |
| 2026-05-05 01:06 | 50.58375 | 0.66724 | 13972 ft | 331 kts | 351° |
| 2026-05-05 01:06 | 50.60753 | 0.66068 | 13974 ft | 330 kts | 352° |
| 2026-05-05 01:06 | 50.63124 | 0.65411 | 13975 ft | 330 kts | 351° |
| 2026-05-05 01:06 | 50.65478 | 0.64755 | 13975 ft | 330 kts | 351° |
| 2026-05-05 01:07 | 50.67847 | 0.64093 | 13974 ft | 330 kts | 351° |
| 2026-05-05 01:07 | 50.70259 | 0.63421 | 13972 ft | 330 kts | 352° |
| 2026-05-05 01:07 | 50.72640 | 0.62756 | 13976 ft | 330 kts | 351° |
| 2026-05-05 01:07 | 50.75019 | 0.62092 | 13973 ft | 329 kts | 352° |
| 2026-05-05 01:08 | 50.77403 | 0.61425 | 13970 ft | 332 kts | 351° |
| 2026-05-05 01:08 | 50.79808 | 0.60756 | 13909 ft | 329 kts | 351° |
| 2026-05-05 01:08 | 50.82185 | 0.60098 | 13478 ft | 328 kts | 352° |
| 2026-05-05 01:08 | 50.84552 | 0.59445 | 13142 ft | 322 kts | 351° |
| 2026-05-05 01:09 | 50.86831 | 0.58825 | 12947 ft | 312 kts | 352° |
| 2026-05-05 01:09 | 50.89037 | 0.58220 | 12732 ft | 303 kts | 351° |
| 2026-05-05 01:09 | 50.91236 | 0.57615 | 12381 ft | 299 kts | 351° |
| 2026-05-05 01:09 | 50.93382 | 0.57027 | 11985 ft | 298 kts | 351° |
| 2026-05-05 01:10 | 50.95536 | 0.56442 | 11592 ft | 296 kts | 351° |
| 2026-05-05 01:10 | 50.97675 | 0.55865 | 11199 ft | 294 kts | 352° |
| 2026-05-05 01:10 | 50.99795 | 0.55300 | 10801 ft | 292 kts | 351° |
| 2026-05-05 01:10 | 51.01916 | 0.54742 | 10410 ft | 290 kts | 351° |
| 2026-05-05 01:11 | 51.03989 | 0.54203 | 10025 ft | 288 kts | 352° |
| 2026-05-05 01:11 | 51.06094 | 0.53652 | 9634 ft | 286 kts | 352° |
| 2026-05-05 01:11 | 51.08146 | 0.53113 | 9252 ft | 283 kts | 351° |
| 2026-05-05 01:11 | 51.10187 | 0.52576 | 8872 ft | 281 kts | 352° |
| 2026-05-05 01:12 | 51.12210 | 0.52043 | 8494 ft | 279 kts | 351° |
| 2026-05-05 01:12 | 51.14240 | 0.51512 | 8116 ft | 277 kts | 351° |
| 2026-05-05 01:12 | 51.16253 | 0.50988 | 7740 ft | 275 kts | 352° |
| 2026-05-05 01:12 | 51.18216 | 0.50477 | 7372 ft | 273 kts | 352° |
| 2026-05-05 01:13 | 51.20205 | 0.49961 | 6995 ft | 271 kts | 352° |
| 2026-05-05 01:13 | 51.22168 | 0.49452 | 6622 ft | 269 kts | 352° |
| 2026-05-05 01:13 | 51.24131 | 0.48947 | 6245 ft | 267 kts | 352° |
| 2026-05-05 01:13 | 51.26049 | 0.48454 | 5880 ft | 265 kts | 352° |
| 2026-05-05 01:14 | 51.27958 | 0.47971 | 5517 ft | 262 kts | 354° |
| 2026-05-05 01:14 | 51.29886 | 0.48072 | 5141 ft | 260 kts | 8° |
| 2026-05-05 01:14 | 51.31748 | 0.48579 | 4797 ft | 257 kts | 11° |
| 2026-05-05 01:14 | 51.33579 | 0.49142 | 4612 ft | 249 kts | 11° |
| 2026-05-05 01:15 | 51.35356 | 0.49694 | 4435 ft | 240 kts | 11° |
| 2026-05-05 01:15 | 51.37066 | 0.50223 | 4264 ft | 232 kts | 11° |
| 2026-05-05 01:15 | 51.38715 | 0.50734 | 4099 ft | 224 kts | 11° |
| 2026-05-05 01:15 | 51.40295 | 0.51223 | 3939 ft | 216 kts | 11° |
| 2026-05-05 01:16 | 51.41825 | 0.51697 | 3781 ft | 209 kts | 11° |
| 2026-05-05 01:16 | 51.43302 | 0.52198 | 3590 ft | 200 kts | 17° |
| 2026-05-05 01:16 | 51.44689 | 0.52955 | 3292 ft | 197 kts | 21° |
| 2026-05-05 01:16 | 51.46029 | 0.53778 | 2973 ft | 196 kts | 21° |
| 2026-05-05 01:17 | 51.47368 | 0.54613 | 2702 ft | 194 kts | 21° |
| 2026-05-05 01:17 | 51.48696 | 0.55442 | 2442 ft | 192 kts | 21° |
| 2026-05-05 01:17 | 51.49925 | 0.56208 | 2427 ft | 173 kts | 21° |
| 2026-05-05 01:17 | 51.51100 | 0.56946 | 2088 ft | 167 kts | 25° |
| 2026-05-05 01:18 | 51.52012 | 0.58158 | 1897 ft | 156 kts | 47° |
| 2026-05-05 01:18 | 51.52690 | 0.59604 | 1631 ft | 150 kts | 53° |
| 2026-05-05 01:18 | 51.53304 | 0.61021 | 1369 ft | 141 kts | 53° |
| 2026-05-05 01:18 | 51.53875 | 0.62304 | 1122 ft | 129 kts | 52° |
| 2026-05-05 01:19 | 51.54421 | 0.63511 | 920 ft | 127 kts | 53° |
| 2026-05-05 01:19 | 51.54965 | 0.64715 | 724 ft | 127 kts | 53° |
| 2026-05-05 01:19 | 51.55501 | 0.65915 | 501 ft | 127 kts | 54° |
| 2026-05-05 01:19 | 51.56035 | 0.67101 | 296 ft | 126 kts | 54° |
| 2026-05-05 01:20 | 51.56581 | 0.68305 | 91 ft | 125 kts | 55° |
| 2026-05-05 01:20 | 51.57050 | 0.69366 | 51 ft | 76 kts | 56° |
| 2026-05-05 01:20 | 51.57287 | 0.69880 | 48 ft | 31 kts | 55° |
| 2026-05-05 01:20 | 51.57412 | 0.70156 | 45 ft | 28 kts | 56° |
| 2026-05-05 01:21 | 51.57511 | 0.70370 | 44 ft | 12 kts | 52° |
| 2026-05-05 01:21 | 51.57520 | 0.70472 | 43 ft | 8 kts | 157° |
| 2026-05-05 01:21 | 51.57452 | 0.70473 | 42 ft | 9 kts | 194° |
| 2026-05-05 01:21 | 51.57381 | 0.70445 | 43 ft | 9 kts | 193° |
| 2026-05-05 01:22 | 51.57326 | 0.70376 | 42 ft | 10 kts | 235° |
| 2026-05-05 01:22 | 51.57278 | 0.70270 | 43 ft | 10 kts | 231° |
| 2026-05-05 01:22 | 51.57212 | 0.70226 | 44 ft | 10 kts | 181° |
| 2026-05-05 01:22 | 51.57132 | 0.70224 | 44 ft | 11 kts | 182° |
| 2026-05-05 01:23 | 51.57046 | 0.70219 | 44 ft | 12 kts | 185° |
| 2026-05-05 01:23 | 51.56972 | 0.70206 | 44 ft | 5 kts | 189° |
| 2026-05-05 01:23 | 51.56932 | 0.70209 | 44 ft | 2 kts | 133° |
| 2026-05-05 01:23 | 51.56931 | 0.70211 | 44 ft | 0 kts | 122° |
| 2026-05-05 01:24 | 51.56929 | 0.70237 | 44 ft | 4 kts | 96° |
| 2026-05-05 01:24 | 51.56927 | 0.70282 | 43 ft | 0 kts | 93° |